首页
METAR-TAF:

METAR-TAF

机场 :

多維爾, 法国

纬度: 49-21-55N, 经度: 000-09-16E, 海拔: 146米

当前天气观测

该预报发布于25分钟前的09:30 UTC
风速17节,风向北转东北,有时为28节阵风,在东北之间变化
温度 6°C
湿度 56%
气压 1031 hPa
能见度10公里或以上
少量云层高于4100英尺
多云层高于6000英尺

METAR: LFRG 290930Z AUTO 02017G28KT 350V050 9999 FEW041 BKN060 06/M02 Q1031

时间: 11:55 (09:55 UTC)


TAF: 丢失

超过4000个机场的气象观测和天气预报(METAR&TAF报告)。

可查询的气象台以黄色和红色小点在地图上表示。

将鼠标移到小点上方,可查看气象台名称。

然后点击查看天气观测和预报。

如需切换地图:点击带黑十字的绿色按钮放大地图;点击带横线的绿色按钮缩小地图;或者点击绿色箭头查看邻近地区的地图。


METAR-TAF: